Time;durP1;ratioP1;P1;durP2;ratioP2;P2;SDS_P1;SDS_P2;PMS_P1;PMS_P2;Temp;Humidity;BMP_temperature;BMP_pressure;BME280_temperature;BME280_humidity;BME280_pressure;Samples;Min_cycle;Max_cycle;Signal;HPM_P1;HPM_P2
2024/03/08 00:00:58;;;;;;;0.60;0.60;;;3.20;99.90;;;;;;4426172;32;20069;-65
2024/03/08 00:03:24;;;;;;;1.50;1.40;;;3.20;99.90;;;;;;4426655;32;20072;-62
2024/03/08 00:05:49;;;;;;;8.70;1.90;;;3.30;99.90;;;;;;4410192;32;20090;-63
2024/03/08 00:08:15;;;;;;;1.00;0.85;;;3.30;99.90;;;;;;4420443;32;20749;-62
2024/03/08 00:10:40;;;;;;;10.68;1.52;;;3.30;99.90;;;;;;4421641;32;20115;-62
2024/03/08 00:13:06;;;;;;;0.95;0.95;;;3.30;99.90;;;;;;4427500;32;20151;-62
2024/03/08 00:15:32;;;;;;;1.75;1.48;;;3.20;99.90;;;;;;4424745;32;20094;-62
2024/03/08 00:17:57;;;;;;;0.70;0.70;;;3.20;99.90;;;;;;4412181;32;20517;-61
2024/03/08 00:20:23;;;;;;;0.65;0.65;;;3.20;99.90;;;;;;4424443;32;20081;-63
2024/03/08 00:22:48;;;;;;;0.75;0.75;;;3.20;99.90;;;;;;4426820;32;20168;-63
2024/03/08 00:25:14;;;;;;;1.17;1.08;;;3.30;99.90;;;;;;4427267;32;20085;-64
2024/03/08 00:27:40;;;;;;;2.60;1.75;;;3.30;99.90;;;;;;4425728;32;20347;-64
2024/03/08 00:30:07;;;;;;;1.42;1.08;;;3.30;99.90;;;;;;4426973;32;20120;-63
2024/03/08 00:32:33;;;;;;;5.90;2.58;;;3.20;99.90;;;;;;4426445;32;20085;-64
2024/03/08 00:34:59;;;;;;;1.30;0.77;;;3.10;99.90;;;;;;4425359;32;20160;-64
2024/03/08 00:37:24;;;;;;;9.77;2.47;;;3.00;99.90;;;;;;4426043;32;20086;-64
2024/03/08 00:39:51;;;;;;;0.50;0.50;;;3.00;99.90;;;;;;4421992;32;20098;-63
2024/03/08 00:42:17;;;;;;;3.03;1.67;;;3.00;99.90;;;;;;4424110;32;20074;-64
2024/03/08 00:44:43;;;;;;;0.90;0.90;;;3.00;99.90;;;;;;4421416;32;20156;-64
2024/03/08 00:47:09;;;;;;;0.70;0.70;;;3.00;99.90;;;;;;4425577;32;20556;-63
2024/03/08 00:49:36;;;;;;;1.67;1.02;;;3.00;99.90;;;;;;4428579;32;20073;-64
2024/03/08 00:52:02;;;;;;;0.47;0.47;;;3.10;99.90;;;;;;4424291;32;20102;-64
2024/03/08 00:54:27;;;;;;;1.00;0.93;;;3.00;99.90;;;;;;4423119;32;20084;-63
2024/03/08 00:56:53;;;;;;;0.73;0.73;;;3.00;99.90;;;;;;4423870;32;20086;-65
2024/03/08 00:59:18;;;;;;;1.42;1.33;;;3.00;99.90;;;;;;4425508;32;20124;-64
2024/03/08 01:04:10;;;;;;;0.88;0.88;;;2.90;99.90;;;;;;4425750;32;20099;-65
2024/03/08 01:06:35;;;;;;;2.80;1.62;;;3.00;99.90;;;;;;4426081;32;20141;-65
2024/03/08 01:09:01;;;;;;;0.98;0.85;;;3.00;99.90;;;;;;4425065;32;20100;-65
2024/03/08 01:11:27;;;;;;;0.52;0.52;;;3.00;99.90;;;;;;4423823;32;20123;-66
2024/03/08 01:13:54;;;;;;;1.52;1.12;;;3.00;99.90;;;;;;4421167;32;21284;-65
2024/03/08 01:16:21;;;;;;;0.60;0.60;;;2.90;99.90;;;;;;4424188;32;20540;-65
2024/03/08 01:18:46;;;;;;;0.68;0.68;;;2.90;99.90;;;;;;4424258;32;20120;-66
2024/03/08 01:21:12;;;;;;;2.78;2.03;;;2.90;99.90;;;;;;4427754;32;20065;-65
2024/03/08 01:23:38;;;;;;;1.25;1.08;;;2.80;99.90;;;;;;4427920;32;20081;-65
2024/03/08 01:26:03;;;;;;;2.35;1.77;;;2.80;99.90;;;;;;4424525;32;20065;-65
2024/03/08 01:28:30;;;;;;;1.27;1.08;;;2.80;99.90;;;;;;4425723;32;20077;-64
2024/03/08 01:30:56;;;;;;;1.70;1.50;;;2.90;99.90;;;;;;4426566;32;20073;-64
2024/03/08 01:33:25;;;;;;;2.62;1.67;;;2.90;99.90;;;;;;4420955;32;20073;-64
2024/03/08 01:35:53;;;;;;;0.70;0.70;;;2.80;99.90;;;;;;4413218;32;20061;-64
2024/03/08 01:38:20;;;;;;;0.77;0.77;;;2.80;99.90;;;;;;4405088;32;20078;-66
2024/03/08 01:40:46;;;;;;;1.02;1.00;;;2.80;99.90;;;;;;4421478;32;20401;-64
2024/03/08 01:43:21;;;;;;;4.68;2.03;;;2.90;99.90;;;;;;4422346;32;20146;-65
2024/03/08 01:45:47;;;;;;;0.85;0.85;;;2.90;99.90;;;;;;4422665;32;20124;-64
2024/03/08 01:48:14;;;;;;;0.80;0.80;;;2.90;99.90;;;;;;4429022;32;20089;-64
2024/03/08 01:50:40;;;;;;;2.20;0.93;;;2.90;99.90;;;;;;4425704;32;20121;-65
2024/03/08 01:53:07;;;;;;;2.22;1.58;;;2.80;99.90;;;;;;4423761;32;20517;-64
2024/03/08 01:55:35;;;;;;;0.52;0.52;;;2.80;99.90;;;;;;4421540;32;20410;-64
2024/03/08 01:58:02;;;;;;;0.73;0.73;;;2.90;99.90;;;;;;4420881;32;20656;-64
2024/03/08 02:02:54;;;;;;;2.80;2.30;;;2.80;99.90;;;;;;4428596;32;20094;-63
2024/03/08 02:05:44;;;;;;;0.95;0.90;;;2.70;99.90;;;;;;4431813;32;20505;-63
2024/03/08 02:08:14;;;;;;;1.20;1.05;;;2.70;99.90;;;;;;4423632;32;20061;-66
2024/03/08 02:10:41;;;;;;;1.90;1.77;;;2.70;99.90;;;;;;4423204;32;20076;-66
2024/03/08 02:13:07;;;;;;;2.90;1.37;;;2.70;99.90;;;;;;4425139;32;20077;-66
2024/03/08 02:15:50;;;;;;;6.10;1.60;;;2.70;99.90;;;;;;4421614;32;20116;-64
2024/03/08 02:18:17;;;;;;;3.60;2.15;;;2.60;99.90;;;;;;4412418;32;20924;-63
2024/03/08 02:20:43;;;;;;;0.75;0.75;;;2.60;99.90;;;;;;4428741;32;20089;-64
2024/03/08 02:23:08;;;;;;;0.75;0.75;;;2.60;99.90;;;;;;4425088;32;20229;-62
2024/03/08 02:25:35;;;;;;;1.92;1.65;;;2.50;99.90;;;;;;4431270;32;20663;-64
2024/03/08 02:28:00;;;;;;;4.18;1.90;;;2.50;99.90;;;;;;4412701;32;20564;-63
2024/03/08 02:30:29;;;;;;;1.20;1.10;;;2.50;99.90;;;;;;4426209;32;20124;-63
2024/03/08 02:32:55;;;;;;;1.75;1.17;;;2.50;99.90;;;;;;4429776;32;20221;-64
2024/03/08 02:35:21;;;;;;;0.88;0.88;;;2.50;99.90;;;;;;4430711;32;20139;-63
2024/03/08 02:37:47;;;;;;;0.73;0.73;;;2.50;99.90;;;;;;4424810;32;20077;-63
2024/03/08 02:40:13;;;;;;;2.28;1.33;;;2.50;99.90;;;;;;4422647;32;20569;-64
2024/03/08 02:42:39;;;;;;;2.90;1.08;;;2.50;99.90;;;;;;4426248;32;20076;-63
2024/03/08 02:45:05;;;;;;;0.93;0.90;;;2.50;99.90;;;;;;4427491;32;20073;-65
2024/03/08 02:47:31;;;;;;;0.90;0.90;;;2.40;99.90;;;;;;4426262;32;21117;-63
2024/03/08 02:49:57;;;;;;;0.65;0.65;;;2.40;99.90;;;;;;4424942;32;20145;-64
2024/03/08 02:52:22;;;;;;;1.75;1.25;;;2.40;99.90;;;;;;4427760;32;20474;-64
2024/03/08 02:54:48;;;;;;;1.45;1.35;;;2.40;99.90;;;;;;4427623;32;20416;-64
2024/03/08 02:57:14;;;;;;;0.60;0.60;;;2.40;99.90;;;;;;4426194;32;20076;-63
2024/03/08 02:59:40;;;;;;;0.88;0.73;;;2.40;99.90;;;;;;4428904;32;20093;-64
2024/03/08 03:02:06;;;;;;;1.25;1.15;;;2.40;99.90;;;;;;4429393;32;20540;-64
2024/03/08 03:04:34;;;;;;;15.23;2.15;;;2.40;99.90;;;;;;4428895;32;20064;-64
2024/03/08 03:07:01;;;;;;;1.05;0.98;;;2.30;99.90;;;;;;4425105;32;20094;-64
2024/03/08 03:09:27;;;;;;;0.68;0.68;;;2.30;99.90;;;;;;4425222;32;20132;-64
2024/03/08 03:11:55;;;;;;;1.30;1.23;;;2.30;99.90;;;;;;4425538;32;20445;-64
2024/03/08 03:14:22;;;;;;;0.93;0.93;;;2.30;99.90;;;;;;4427304;32;20072;-66
2024/03/08 03:16:47;;;;;;;0.88;0.88;;;2.40;99.90;;;;;;4426802;32;20112;-65
2024/03/08 03:19:13;;;;;;;0.88;0.88;;;2.30;99.90;;;;;;4429945;32;20085;-64
2024/03/08 03:21:38;;;;;;;1.10;1.10;;;2.30;99.90;;;;;;4427126;32;20078;-66
2024/03/08 03:24:09;;;;;;;0.60;0.60;;;2.30;99.90;;;;;;4424885;32;20171;-66
2024/03/08 03:26:38;;;;;;;1.27;1.17;;;2.30;99.90;;;;;;4427431;32;20073;-66
2024/03/08 03:29:06;;;;;;;1.83;1.55;;;2.20;99.90;;;;;;4425152;32;20146;-66
2024/03/08 03:31:31;;;;;;;0.45;0.45;;;2.20;99.90;;;;;;4427884;32;20069;-66
2024/03/08 03:34:01;;;;;;;10.50;1.98;;;2.10;99.90;;;;;;4414180;32;20064;-64
2024/03/08 03:36:27;;;;;;;6.47;0.93;;;2.10;99.90;;;;;;4426134;32;20536;-63
2024/03/08 03:39:04;;;;;;;6.18;1.25;;;2.10;99.90;;;;;;4425631;32;20094;-62
2024/03/08 03:41:30;;;;;;;1.12;1.12;;;2.10;99.90;;;;;;4425778;32;20549;-65
2024/03/08 03:43:57;;;;;;;0.70;0.70;;;2.10;99.90;;;;;;4423733;32;20070;-64
2024/03/08 03:46:22;;;;;;;0.82;0.82;;;2.00;99.90;;;;;;4426526;32;20081;-64
2024/03/08 03:48:48;;;;;;;1.35;1.12;;;2.00;99.90;;;;;;4428348;32;20132;-64
2024/03/08 03:51:15;;;;;;;0.70;0.70;;;2.00;99.90;;;;;;4426792;32;20069;-67
2024/03/08 03:53:40;;;;;;;1.67;1.42;;;2.00;99.90;;;;;;4428362;32;20069;-66
2024/03/08 03:56:06;;;;;;;0.60;0.60;;;1.90;99.90;;;;;;4427506;32;20084;-66
2024/03/08 03:58:32;;;;;;;3.70;1.25;;;2.00;99.90;;;;;;4423547;32;20101;-67
2024/03/08 04:00:58;;;;;;;0.85;0.85;;;1.90;99.90;;;;;;4421921;32;20078;-66
2024/03/08 04:03:23;;;;;;;1.58;1.48;;;1.90;99.90;;;;;;4423624;32;20522;-69
2024/03/08 04:05:49;;;;;;;4.28;1.25;;;1.90;99.90;;;;;;4422472;32;20222;-66
2024/03/08 04:08:14;;;;;;;0.70;0.70;;;1.90;99.90;;;;;;4420872;32;20094;-66
2024/03/08 04:10:41;;;;;;;1.62;1.52;;;1.90;99.90;;;;;;4426534;32;20086;-66
2024/03/08 04:13:09;;;;;;;1.10;1.10;;;2.00;99.90;;;;;;4424103;32;20128;-66
2024/03/08 04:15:35;;;;;;;6.78;1.87;;;2.00;99.90;;;;;;4429186;32;20527;-65
2024/03/08 04:18:00;;;;;;;0.90;0.90;;;1.90;99.90;;;;;;4424289;32;20220;-66
2024/03/08 04:20:26;;;;;;;1.77;1.62;;;1.80;99.90;;;;;;4428311;32;20156;-66
2024/03/08 04:22:51;;;;;;;8.95;2.65;;;1.80;99.90;;;;;;4423722;32;20093;-64
2024/03/08 04:25:17;;;;;;;2.22;1.98;;;1.80;99.90;;;;;;4429372;32;20080;-63
2024/03/08 04:27:44;;;;;;;3.83;1.25;;;1.80;99.90;;;;;;4424549;32;20093;-63
2024/03/08 04:30:10;;;;;;;0.88;0.88;;;1.80;99.90;;;;;;4429276;32;20525;-64
2024/03/08 04:32:35;;;;;;;0.68;0.68;;;1.80;99.90;;;;;;4427042;32;20061;-63
2024/03/08 04:35:01;;;;;;;1.00;1.00;;;1.80;99.90;;;;;;4426879;32;20068;-63
2024/03/08 04:37:29;;;;;;;0.68;0.68;;;1.80;99.90;;;;;;4424412;32;20074;-63
2024/03/08 04:39:56;;;;;;;0.82;0.82;;;1.80;99.90;;;;;;4424494;32;20073;-64
2024/03/08 04:42:23;;;;;;;0.70;0.70;;;1.70;99.90;;;;;;4423817;32;20077;-64
2024/03/08 04:44:48;;;;;;;0.73;0.73;;;1.50;99.90;;;;;;4426187;32;20073;-63
2024/03/08 04:47:14;;;;;;;1.62;1.52;;;1.60;99.90;;;;;;4427425;32;20083;-63
2024/03/08 04:49:39;;;;;;;1.15;0.93;;;1.70;99.90;;;;;;4428323;32;20140;-64
2024/03/08 04:52:05;;;;;;;9.40;2.62;;;1.60;99.90;;;;;;4428258;32;20077;-64
2024/03/08 04:54:31;;;;;;;1.75;1.33;;;1.60;99.90;;;;;;4428254;32;20435;-61
2024/03/08 04:56:57;;;;;;;2.53;1.17;;;1.50;99.90;;;;;;4425265;32;20132;-61
2024/03/08 04:59:23;;;;;;;2.33;1.75;;;1.50;99.90;;;;;;4424356;32;20065;-61
2024/03/08 05:01:49;;;;;;;4.32;2.10;;;1.50;99.90;;;;;;4423934;32;20152;-65
2024/03/08 05:04:15;;;;;;;1.30;1.02;;;1.50;99.90;;;;;;4425656;32;20084;-64
2024/03/08 05:06:40;;;;;;;3.08;2.03;;;1.50;99.90;;;;;;4428935;32;20072;-64
2024/03/08 05:09:13;;;;;;;1.87;1.58;;;1.60;99.90;;;;;;4425443;32;20114;-65
2024/03/08 05:11:39;;;;;;;0.50;0.50;;;1.60;99.90;;;;;;4426343;32;20073;-64
2024/03/08 05:14:05;;;;;;;5.93;2.78;;;1.40;99.90;;;;;;4425736;32;20537;-64
2024/03/08 05:16:30;;;;;;;2.03;1.75;;;1.40;99.90;;;;;;4427742;32;20076;-64
2024/03/08 05:18:56;;;;;;;2.25;1.73;;;1.50;99.90;;;;;;4425844;32;20435;-65
2024/03/08 05:21:23;;;;;;;0.70;0.70;;;1.50;99.90;;;;;;4425748;32;20558;-64
2024/03/08 05:23:50;;;;;;;1.12;1.05;;;1.40;99.90;;;;;;4427012;32;20584;-64
2024/03/08 05:26:17;;;;;;;2.75;1.48;;;1.50;99.90;;;;;;4423736;32;20095;-64
2024/03/08 05:28:42;;;;;;;1.27;1.17;;;1.50;99.90;;;;;;4426662;32;20077;-65
2024/03/08 05:31:08;;;;;;;1.48;1.37;;;1.50;99.90;;;;;;4427361;32;20082;-65
2024/03/08 05:33:34;;;;;;;0.90;0.90;;;1.50;99.90;;;;;;4425656;32;20548;-66
2024/03/08 05:36:02;;;;;;;1.98;1.73;;;1.50;99.90;;;;;;4421711;32;20065;-65
2024/03/08 05:38:28;;;;;;;1.42;1.33;;;1.40;99.90;;;;;;4423312;32;20077;-66
2024/03/08 05:40:54;;;;;;;1.02;1.02;;;1.40;99.90;;;;;;4422951;32;21164;-66
2024/03/08 05:43:19;;;;;;;1.12;1.10;;;1.40;99.90;;;;;;4427266;32;20116;-67
2024/03/08 05:45:46;;;;;;;0.73;0.73;;;1.50;99.90;;;;;;4430705;32;20120;-66
2024/03/08 05:48:12;;;;;;;3.40;2.50;;;1.40;99.90;;;;;;4426879;32;20180;-65
2024/03/08 05:50:38;;;;;;;5.00;1.73;;;1.40;99.90;;;;;;4426889;32;20065;-65
2024/03/08 05:53:06;;;;;;;2.45;1.40;;;1.30;99.90;;;;;;4428675;32;20450;-66
2024/03/08 05:55:34;;;;;;;1.80;1.45;;;1.30;99.90;;;;;;4428681;32;20085;-65
2024/03/08 05:58:01;;;;;;;5.53;3.03;;;1.40;99.90;;;;;;4415150;32;20094;-66
2024/03/08 06:00:27;;;;;;;0.65;0.65;;;1.40;99.90;;;;;;4422379;32;20054;-66
2024/03/08 06:02:53;;;;;;;1.27;1.17;;;1.30;99.90;;;;;;4412019;32;20097;-66
2024/03/08 06:05:18;;;;;;;0.90;0.90;;;1.30;99.90;;;;;;4425599;32;20070;-64
2024/03/08 06:07:44;;;;;;;6.43;1.27;;;1.30;99.90;;;;;;4429319;32;20081;-65
2024/03/08 06:10:12;;;;;;;1.08;1.08;;;1.30;99.90;;;;;;4425586;32;21163;-66
2024/03/08 06:12:41;;;;;;;0.80;0.80;;;1.20;99.90;;;;;;4424404;32;20076;-64
2024/03/08 06:15:09;;;;;;;4.10;2.00;;;1.30;99.90;;;;;;4430716;32;20912;-64
2024/03/08 06:17:36;;;;;;;1.33;1.23;;;1.30;99.90;;;;;;4428146;32;20069;-65
2024/03/08 06:20:03;;;;;;;1.15;1.12;;;1.40;99.90;;;;;;4427658;32;20517;-64
2024/03/08 06:22:30;;;;;;;5.62;1.83;;;1.40;99.90;;;;;;4428113;32;20085;-64
2024/03/08 06:24:56;;;;;;;0.73;0.73;;;1.40;99.90;;;;;;4427951;32;20120;-65
2024/03/08 06:27:22;;;;;;;0.80;0.80;;;1.40;99.90;;;;;;4425948;32;20084;-66
2024/03/08 06:29:49;;;;;;;1.48;1.37;;;1.40;99.90;;;;;;4424084;32;20085;-65
2024/03/08 06:32:15;;;;;;;1.55;1.45;;;1.40;99.90;;;;;;4427620;32;20120;-65
2024/03/08 06:34:41;;;;;;;0.95;0.95;;;1.50;99.90;;;;;;4424076;32;20065;-64
2024/03/08 06:37:06;;;;;;;1.10;1.10;;;1.60;99.90;;;;;;4427997;32;21373;-64
2024/03/08 06:39:32;;;;;;;1.87;1.30;;;1.70;99.90;;;;;;4420499;32;20493;-64
2024/03/08 06:41:58;;;;;;;1.50;1.35;;;1.70;99.90;;;;;;4427130;32;20065;-65
2024/03/08 06:44:23;;;;;;;1.30;1.23;;;1.70;99.90;;;;;;4424761;32;20120;-63
2024/03/08 06:46:49;;;;;;;1.08;1.08;;;1.70;99.90;;;;;;4426674;32;20081;-63
2024/03/08 06:49:15;;;;;;;2.10;1.90;;;1.70;99.90;;;;;;4426043;32;20073;-62
2024/03/08 06:51:41;;;;;;;4.65;1.87;;;1.80;99.90;;;;;;4424171;32;20077;-62
2024/03/08 06:54:08;;;;;;;2.50;2.30;;;1.80;99.90;;;;;;4424943;32;20094;-61
2024/03/08 06:56:34;;;;;;;6.20;1.90;;;1.90;99.90;;;;;;4424311;32;20082;-66
2024/03/08 06:59:00;;;;;;;2.75;1.60;;;2.00;99.90;;;;;;4425077;32;20537;-62
2024/03/08 07:01:25;;;;;;;1.17;1.17;;;2.00;99.90;;;;;;4425912;32;20123;-63
2024/03/08 07:03:52;;;;;;;0.80;0.80;;;2.10;99.90;;;;;;4426298;32;20073;-64
2024/03/08 07:06:18;;;;;;;1.15;1.08;;;2.10;99.90;;;;;;4426792;32;20293;-63
2024/03/08 07:08:45;;;;;;;3.65;1.50;;;2.10;99.90;;;;;;4423947;32;20516;-63
2024/03/08 07:11:11;;;;;;;7.90;3.28;;;2.20;99.90;;;;;;4426905;32;20065;-63
2024/03/08 07:13:38;;;;;;;1.27;1.17;;;2.30;99.90;;;;;;4426544;32;20061;-62
2024/03/08 07:16:05;;;;;;;3.45;2.00;;;2.40;99.90;;;;;;4425284;32;20521;-61
2024/03/08 07:18:30;;;;;;;11.02;2.47;;;2.40;99.90;;;;;;4429429;32;20061;-64
2024/03/08 07:20:57;;;;;;;0.60;0.60;;;2.50;99.90;;;;;;4427477;32;20591;-63
2024/03/08 07:25:23;;;;;;;2.45;1.48;;;2.70;99.90;;;;;;4424226;32;20184;-62
2024/03/08 07:26:09;;;;;;;1.42;1.33;;;2.70;99.90;;;;;;4417240;32;20114;-64
2024/03/08 07:28:35;;;;;;;2.05;1.55;;;2.60;99.90;;;;;;4426683;32;20077;-65
2024/03/08 07:32:12;;;;;;;1.45;1.35;;;2.80;99.90;;;;;;4420188;32;20450;-61
2024/03/08 07:33:46;;;;;;;0.80;0.80;;;2.90;99.90;;;;;;4413149;32;20132;-65
2024/03/08 07:36:11;;;;;;;6.25;2.50;;;3.00;99.90;;;;;;4424959;32;20151;-63
2024/03/08 07:38:37;;;;;;;2.37;1.33;;;3.10;99.90;;;;;;4424903;32;20082;-64
2024/03/08 07:41:02;;;;;;;1.37;1.27;;;3.20;99.90;;;;;;4429499;32;20093;-61
2024/03/08 07:43:28;;;;;;;1.10;1.02;;;3.30;99.90;;;;;;4424040;32;20117;-65
2024/03/08 07:45:55;;;;;;;4.40;2.03;;;3.30;99.90;;;;;;4425616;32;20096;-66
2024/03/08 07:48:21;;;;;;;12.88;1.55;;;3.40;99.90;;;;;;4424914;32;20094;-66
2024/03/08 07:50:46;;;;;;;2.60;1.42;;;3.50;99.90;;;;;;4427664;32;20080;-65
2024/03/08 07:53:11;;;;;;;5.30;2.10;;;3.50;99.90;;;;;;4424131;32;20534;-65
2024/03/08 07:55:37;;;;;;;3.55;2.15;;;3.60;99.90;;;;;;4425372;32;20716;-65
2024/03/08 07:58:03;;;;;;;1.48;1.35;;;3.70;99.90;;;;;;4424660;32;20089;-67
2024/03/08 08:00:31;;;;;;;4.10;1.58;;;3.80;99.90;;;;;;4424381;32;20126;-66
2024/03/08 08:02:56;;;;;;;1.23;1.12;;;3.80;99.90;;;;;;4413254;32;20089;-65
2024/03/08 08:05:22;;;;;;;7.82;1.87;;;4.00;99.90;;;;;;4428298;32;20124;-66
2024/03/08 08:07:47;;;;;;;1.33;1.23;;;4.00;99.90;;;;;;4413586;32;20057;-65
2024/03/08 08:10:18;;;;;;;2.53;1.45;;;4.10;99.90;;;;;;4424956;32;20060;-66
2024/03/08 08:12:44;;;;;;;3.45;2.80;;;4.20;99.90;;;;;;4411581;32;20073;-66
2024/03/08 08:15:10;;;;;;;1.23;1.12;;;4.30;99.90;;;;;;4428361;32;20061;-66
2024/03/08 08:17:37;;;;;;;1.05;1.05;;;4.50;99.90;;;;;;4425578;32;20609;-66
2024/03/08 08:20:05;;;;;;;2.17;1.62;;;4.60;99.90;;;;;;4425267;32;20094;-66
2024/03/08 08:22:31;;;;;;;1.25;0.98;;;4.70;99.90;;;;;;4424619;32;20081;-66
2024/03/08 08:24:56;;;;;;;3.30;1.62;;;4.80;99.90;;;;;;4425539;32;20541;-67
2024/03/08 08:27:21;;;;;;;0.95;0.95;;;5.00;99.90;;;;;;4412369;32;20088;-65
2024/03/08 08:29:47;;;;;;;0.93;0.93;;;5.10;99.90;;;;;;4422685;32;20110;-64
2024/03/08 08:32:13;;;;;;;8.70;2.95;;;5.30;99.90;;;;;;4427376;32;20116;-66
2024/03/08 08:34:38;;;;;;;4.82;1.42;;;5.40;99.90;;;;;;4423997;32;20692;-65
2024/03/08 08:37:04;;;;;;;2.20;1.15;;;5.50;99.90;;;;;;4423450;32;20085;-67
2024/03/08 08:39:29;;;;;;;6.47;2.55;;;5.50;99.90;;;;;;4420296;32;20533;-65
2024/03/08 08:41:55;;;;;;;4.20;1.90;;;5.60;99.90;;;;;;4421581;32;20073;-65
2024/03/08 08:44:20;;;;;;;2.55;1.48;;;5.80;99.90;;;;;;4422895;32;20660;-65
2024/03/08 08:46:47;;;;;;;7.43;1.45;;;5.90;99.90;;;;;;4424295;32;20073;-65
2024/03/08 08:49:16;;;;;;;8.88;3.50;;;6.00;99.90;;;;;;4426287;32;20301;-65
2024/03/08 08:51:42;;;;;;;2.00;1.37;;;6.10;99.90;;;;;;4425716;32;20077;-65
2024/03/08 08:54:07;;;;;;;2.33;1.95;;;6.30;99.90;;;;;;4425735;32;20123;-63
2024/03/08 08:56:33;;;;;;;10.65;1.77;;;6.40;99.90;;;;;;4424426;32;20074;-66
2024/03/08 08:58:58;;;;;;;3.70;1.87;;;6.50;99.90;;;;;;4425297;32;20553;-64
2024/03/08 09:01:24;;;;;;;1.12;1.02;;;6.80;99.90;;;;;;4423561;32;20073;-64
2024/03/08 09:03:50;;;;;;;2.25;1.48;;;6.70;99.90;;;;;;4429614;32;20085;-63
2024/03/08 09:06:16;;;;;;;1.48;0.98;;;6.80;99.90;;;;;;4426430;32;20561;-61
2024/03/08 09:08:43;;;;;;;10.60;2.37;;;6.90;99.90;;;;;;4424012;32;20185;-62
2024/03/08 09:11:10;;;;;;;2.62;1.75;;;6.80;99.90;;;;;;4425432;32;20619;-60
2024/03/08 09:13:36;;;;;;;4.40;1.73;;;6.70;99.90;;;;;;4428465;32;20081;-61
2024/03/08 09:16:02;;;;;;;2.08;1.30;;;6.70;99.90;;;;;;4427924;32;20061;-63
2024/03/08 09:18:29;;;;;;;2.95;1.65;;;6.70;99.90;;;;;;4430138;32;20078;-63
2024/03/08 09:20:54;;;;;;;1.40;1.12;;;6.80;99.90;;;;;;4429924;32;20085;-62
2024/03/08 09:23:20;;;;;;;4.68;2.47;;;6.80;99.90;;;;;;4429138;32;20122;-62
2024/03/08 09:25:46;;;;;;;5.05;2.05;;;7.10;99.90;;;;;;4424674;32;20093;-63
2024/03/08 09:28:12;;;;;;;11.10;2.05;;;7.40;99.90;;;;;;4411969;32;20144;-60
2024/03/08 09:30:38;;;;;;;1.55;1.17;;;7.40;99.90;;;;;;4427410;32;20074;-61
2024/03/08 09:33:05;;;;;;;6.65;1.70;;;7.40;99.90;;;;;;4427685;32;20188;-62
2024/03/08 09:35:31;;;;;;;1.83;1.40;;;7.50;99.90;;;;;;4425784;32;20078;-61
2024/03/08 09:37:56;;;;;;;4.60;2.05;;;7.50;99.90;;;;;;4425337;32;20528;-62
2024/03/08 09:40:24;;;;;;;1.48;1.02;;;7.70;99.90;;;;;;4425630;32;20065;-62
2024/03/08 09:42:50;;;;;;;1.40;1.20;;;7.80;99.90;;;;;;4424521;32;20163;-64
2024/03/08 09:45:17;;;;;;;2.60;1.23;;;7.80;99.90;;;;;;4427150;32;20863;-60
2024/03/08 09:47:44;;;;;;;7.43;1.87;;;7.90;99.90;;;;;;4426162;32;20146;-63
2024/03/08 09:50:12;;;;;;;3.15;2.12;;;7.80;99.90;;;;;;4426533;32;20060;-63
2024/03/08 09:52:39;;;;;;;2.12;1.17;;;7.80;99.90;;;;;;4428101;32;20074;-61
2024/03/08 09:55:06;;;;;;;0.95;0.93;;;7.70;99.90;;;;;;4426329;32;20088;-63
2024/03/08 09:57:33;;;;;;;6.95;1.15;;;7.80;99.90;;;;;;4426102;32;20114;-63
2024/03/08 09:59:59;;;;;;;1.65;1.37;;;8.00;99.90;;;;;;4427441;32;20057;-62
2024/03/08 10:02:24;;;;;;;2.08;1.40;;;8.40;99.90;;;;;;4428503;32;20082;-64
2024/03/08 10:04:53;;;;;;;1.55;0.77;;;8.60;99.90;;;;;;4432684;32;20081;-64
2024/03/08 10:07:18;;;;;;;3.35;1.45;;;8.50;99.90;;;;;;4417991;32;20117;-64
2024/03/08 10:09:49;;;;;;;0.80;0.80;;;8.60;99.90;;;;;;4428074;32;20118;-64
2024/03/08 10:12:17;;;;;;;1.10;0.90;;;8.60;99.90;;;;;;4429645;32;20077;-65
2024/03/08 10:14:43;;;;;;;0.62;0.62;;;8.70;99.90;;;;;;4400643;32;20074;-62
2024/03/08 10:17:09;;;;;;;0.80;0.80;;;8.70;99.90;;;;;;4427347;32;20066;-63
2024/03/08 10:19:34;;;;;;;1.45;1.05;;;8.90;99.90;;;;;;4431176;32;20181;-62
2024/03/08 10:22:00;;;;;;;1.00;0.90;;;8.90;99.90;;;;;;4424655;32;20133;-63
2024/03/08 10:24:25;;;;;;;1.05;0.95;;;8.90;99.90;;;;;;4430342;32;20090;-63
2024/03/08 10:26:53;;;;;;;4.18;1.98;;;8.90;99.90;;;;;;4426905;32;20412;-64
2024/03/08 10:29:19;;;;;;;0.65;0.65;;;9.00;99.90;;;;;;4423809;32;21017;-64
2024/03/08 10:31:45;;;;;;;1.52;1.25;;;9.20;99.90;;;;;;4421584;32;20783;-65
2024/03/08 10:34:10;;;;;;;1.30;1.20;;;9.20;99.90;;;;;;4420092;32;20058;-61
2024/03/08 10:36:37;;;;;;;6.37;1.62;;;9.40;99.90;;;;;;4418442;32;20600;-62
2024/03/08 10:39:24;;;;;;;2.45;0.95;;;9.60;99.90;;;;;;4419528;32;20459;-63
2024/03/08 10:41:57;;;;;;;12.25;1.58;;;9.50;99.90;;;;;;4423049;32;20514;-63
2024/03/08 10:44:31;;;;;;;0.73;0.73;;;9.50;99.90;;;;;;4423219;32;20097;-61
2024/03/08 10:47:05;;;;;;;2.03;1.25;;;9.70;99.90;;;;;;4427062;32;20065;-62
2024/03/08 10:49:38;;;;;;;2.78;1.27;;;9.70;99.90;;;;;;4421796;32;20131;-66
2024/03/08 10:52:05;;;;;;;0.95;0.88;;;9.80;99.90;;;;;;4405034;32;20069;-66
2024/03/08 10:54:32;;;;;;;2.05;1.05;;;9.90;99.90;;;;;;4422744;32;20538;-61
2024/03/08 10:56:58;;;;;;;0.80;0.80;;;9.80;99.90;;;;;;4424404;32;20077;-64
2024/03/08 10:59:26;;;;;;;6.12;1.23;;;10.00;99.90;;;;;;4423898;32;20089;-63
2024/03/08 11:01:52;;;;;;;1.08;1.08;;;9.90;99.90;;;;;;4425751;32;20082;-62
2024/03/08 11:04:22;;;;;;;7.35;1.52;;;9.80;99.90;;;;;;4424783;32;20093;-62
2024/03/08 11:06:54;;;;;;;0.88;0.88;;;10.00;99.80;;;;;;4432067;32;20094;-63
2024/03/08 11:09:42;;;;;;;6.87;1.35;;;10.00;99.90;;;;;;4425865;32;20139;-63
2024/03/08 11:12:29;;;;;;;1.48;1.27;;;10.20;99.10;;;;;;4414268;32;20066;-62
2024/03/08 11:14:56;;;;;;;2.12;1.33;;;10.40;99.40;;;;;;4403692;32;20202;-63
2024/03/08 11:17:34;;;;;;;0.57;0.57;;;10.30;98.50;;;;;;4427179;32;20070;-62
2024/03/08 11:20:15;;;;;;;2.90;1.48;;;10.50;98.30;;;;;;4427812;32;20081;-61
2024/03/08 11:22:41;;;;;;;7.75;2.30;;;10.80;97.70;;;;;;4424032;32;20587;-63
2024/03/08 11:25:09;;;;;;;3.10;1.70;;;10.90;97.10;;;;;;4428226;32;20108;-66
2024/03/08 11:27:36;;;;;;;4.82;1.10;;;10.80;96.60;;;;;;4423374;32;20077;-64
2024/03/08 11:30:15;;;;;;;1.25;1.15;;;10.90;96.70;;;;;;4425866;32;20427;-62
2024/03/08 11:32:46;;;;;;;1.85;0.88;;;11.10;95.80;;;;;;4412043;32;20777;-63
2024/03/08 11:35:20;;;;;;;;;;;11.30;95.50;;;;;;4412509;32;20236;-63
2024/03/08 11:37:45;;;;;;;0.57;0.57;;;11.30;95.00;;;;;;4422569;32;20349;-66
2024/03/08 11:40:16;;;;;;;0.82;0.82;;;11.50;94.90;;;;;;4425725;32;20082;-63
2024/03/08 11:42:47;;;;;;;;;;;11.80;94.60;;;;;;4410880;32;20073;-64
2024/03/08 11:45:13;;;;;;;4.45;1.50;;;11.90;94.20;;;;;;4426623;32;20097;-63
2024/03/08 11:47:41;;;;;;;0.55;0.55;;;11.90;93.70;;;;;;4412312;32;20058;-64
2024/03/08 11:50:11;;;;;;;1.95;1.12;;;12.10;93.50;;;;;;4424539;32;20093;-63
2024/03/08 11:54:19;;;;;;;1.73;1.27;;;12.30;92.90;;;;;;4456676;32;95876;-64
2024/03/08 11:56:47;;;;;;;0.47;0.47;;;12.40;92.40;;;;;;4460826;32;20458;-64
2024/03/08 11:59:13;;;;;;;4.18;1.95;;;12.90;91.10;;;;;;4459282;32;20068;-64
2024/03/08 12:01:39;;;;;;;0.93;0.93;;;13.40;91.00;;;;;;4461750;32;20556;-64
2024/03/08 12:04:05;;;;;;;1.55;0.60;;;13.70;89.40;;;;;;4458570;32;20167;-63
2024/03/08 12:06:41;;;;;;;0.50;0.50;;;13.70;90.10;;;;;;4461550;32;20080;-63
2024/03/08 12:09:10;;;;;;;3.58;1.27;;;13.40;89.30;;;;;;4457662;32;20089;-61
2024/03/08 12:11:37;;;;;;;0.75;0.75;;;13.40;90.00;;;;;;4459189;32;20136;-64
2024/03/08 12:14:04;;;;;;;4.12;1.20;;;13.50;89.40;;;;;;4458116;32;20576;-63
2024/03/08 12:16:37;;;;;;;2.53;1.27;;;13.30;91.30;;;;;;4458524;32;20076;-63
2024/03/08 12:19:04;;;;;;;1.33;1.23;;;14.00;90.50;;;;;;4458950;32;20089;-64
2024/03/08 12:21:32;;;;;;;2.87;1.33;;;13.90;88.10;;;;;;4464367;32;20068;-64
2024/03/08 12:24:08;;;;;;;0.98;0.70;;;14.30;86.60;;;;;;4469568;32;20422;-64
2024/03/08 12:26:41;;;;;;;10.82;1.58;;;14.80;81.80;;;;;;4467714;32;20092;-64
2024/03/08 12:29:25;;;;;;;1.42;0.68;;;15.10;79.50;;;;;;4466381;32;20068;-65
2024/03/08 12:31:54;;;;;;;0.57;0.57;;;14.80;78.80;;;;;;4458713;32;20093;-66
2024/03/08 12:34:20;;;;;;;1.73;1.30;;;15.20;78.20;;;;;;4465367;32;20072;-64
2024/03/08 12:36:48;;;;;;;0.50;0.50;;;14.50;77.70;;;;;;4468035;32;20080;-64
2024/03/08 12:39:17;;;;;;;0.80;0.80;;;15.00;77.50;;;;;;4462597;32;20164;-64
2024/03/08 12:41:46;;;;;;;3.28;1.33;;;15.00;76.50;;;;;;4454202;32;20406;-64
2024/03/08 12:44:12;;;;;;;0.70;0.70;;;15.10;76.80;;;;;;4467744;32;20088;-65
2024/03/08 12:46:44;;;;;;;2.62;1.37;;;15.00;76.30;;;;;;4461559;32;20434;-65
2024/03/08 12:49:09;;;;;;;4.37;0.93;;;15.40;74.60;;;;;;4459410;32;20080;-65
2024/03/08 12:51:36;;;;;;;0.73;0.73;;;15.40;74.20;;;;;;4467595;32;20619;-65
2024/03/08 12:54:01;;;;;;;7.05;1.20;;;15.60;75.30;;;;;;4468893;32;20124;-66
2024/03/08 12:56:30;;;;;;;2.50;1.25;;;15.90;76.30;;;;;;4458290;32;20862;-65
2024/03/08 12:58:56;;;;;;;2.47;1.60;;;15.90;76.90;;;;;;4468431;32;20118;-65
2024/03/08 13:01:22;;;;;;;1.02;0.62;;;16.00;75.10;;;;;;4465744;32;20072;-65